Time;durP1;ratioP1;P1;durP2;ratioP2;P2;SDS_P1;SDS_P2;PMS_P1;PMS_P2;Temp;Humidity;BMP_temperature;BMP_pressure;BME280_temperature;BME280_humidity;BME280_pressure;Samples;Min_cycle;Max_cycle;Signal;HPM_P1;HPM_P2
2021/10/15 00:01:30;;;;;;;99.40;33.45;;;8.40;99.90;;;;;;5037838;28;20044;-75
2021/10/15 00:03:57;;;;;;;103.90;33.20;;;8.30;99.90;;;;;;5036883;28;20041;-75
2021/10/15 00:06:25;;;;;;;82.72;31.52;;;8.30;99.90;;;;;;5036784;28;20044;-77
2021/10/15 00:08:52;;;;;;;79.95;29.35;;;8.20;99.90;;;;;;5037217;28;20052;-76
2021/10/15 00:11:19;;;;;;;69.93;28.20;;;8.10;99.90;;;;;;5037089;28;20307;-75
2021/10/15 00:13:46;;;;;;;69.40;29.52;;;8.10;99.90;;;;;;5036539;28;20055;-75
2021/10/15 00:16:13;;;;;;;78.60;28.55;;;8.10;99.90;;;;;;5037235;28;20049;-75
2021/10/15 00:18:42;;;;;;;76.60;28.55;;;8.20;99.90;;;;;;5037235;28;20900;-76
2021/10/15 00:21:09;;;;;;;64.35;27.58;;;8.10;99.90;;;;;;5038180;28;20057;-75
2021/10/15 00:23:36;;;;;;;71.60;28.02;;;8.10;99.90;;;;;;5038054;28;20053;-75
2021/10/15 00:26:03;;;;;;;63.38;27.75;;;8.20;99.90;;;;;;5036956;28;20556;-75
2021/10/15 00:28:30;;;;;;;75.68;27.40;;;8.20;99.90;;;;;;5037492;28;20094;-76
2021/10/15 00:30:58;;;;;;;58.17;24.67;;;8.20;99.90;;;;;;5037902;28;20041;-75
2021/10/15 00:33:25;;;;;;;65.88;25.92;;;8.20;99.90;;;;;;5036846;28;20569;-75
2021/10/15 00:35:54;;;;;;;80.88;29.48;;;8.20;99.90;;;;;;5034876;28;20563;-75
2021/10/15 00:38:21;;;;;;;79.07;29.30;;;8.20;99.90;;;;;;5036204;28;20040;-76
2021/10/15 00:40:48;;;;;;;64.43;27.65;;;8.20;99.90;;;;;;5037601;28;20575;-76
2021/10/15 00:43:15;;;;;;;67.30;27.95;;;8.10;99.90;;;;;;5036404;28;20041;-76
2021/10/15 00:45:43;;;;;;;63.88;27.40;;;8.10;99.90;;;;;;5035294;28;20048;-75
2021/10/15 00:48:10;;;;;;;56.60;23.95;;;8.10;99.90;;;;;;5036936;28;20134;-76
2021/10/15 00:50:37;;;;;;;50.60;23.38;;;8.10;99.90;;;;;;5036286;28;20108;-76
2021/10/15 00:53:06;;;;;;;57.65;24.33;;;8.10;99.90;;;;;;5037386;28;20056;-75
2021/10/15 00:55:33;;;;;;;55.25;24.77;;;8.10;99.90;;;;;;5036988;28;20635;-75
2021/10/15 00:58:00;;;;;;;46.20;23.50;;;8.20;99.90;;;;;;5037360;28;20052;-75
2021/10/15 01:00:27;;;;;;;57.58;24.67;;;8.20;99.90;;;;;;5037329;28;20600;-75
2021/10/15 01:02:55;;;;;;;54.40;24.50;;;8.10;99.90;;;;;;5036392;28;20044;-76
2021/10/15 01:05:23;;;;;;;55.13;25.10;;;8.00;99.90;;;;;;5036356;28;20126;-75
2021/10/15 01:07:50;;;;;;;65.70;26.17;;;8.00;99.90;;;;;;5037081;28;20074;-76
2021/10/15 01:10:18;;;;;;;72.90;26.48;;;7.90;99.90;;;;;;5036624;28;20075;-76
2021/10/15 01:12:47;;;;;;;62.38;25.25;;;7.80;99.90;;;;;;5036743;28;20057;-75
2021/10/15 01:15:14;;;;;;;61.28;23.83;;;7.80;99.90;;;;;;5036066;28;20099;-76
2021/10/15 01:17:41;;;;;;;62.83;25.60;;;7.80;99.90;;;;;;5036384;28;20127;-75
2021/10/15 01:20:10;;;;;;;77.90;27.42;;;7.80;99.90;;;;;;5036750;28;20497;-75
2021/10/15 01:22:37;;;;;;;66.00;26.88;;;7.70;99.90;;;;;;5037013;28;20045;-75
2021/10/15 01:25:05;;;;;;;63.05;26.70;;;7.70;99.90;;;;;;5036287;28;20049;-74
2021/10/15 01:27:32;;;;;;;66.40;26.55;;;7.70;99.90;;;;;;5035919;28;20064;-75
2021/10/15 01:29:59;;;;;;;73.70;27.92;;;7.80;99.90;;;;;;5035924;28;20045;-75
2021/10/15 01:32:26;;;;;;;74.25;27.58;;;7.80;99.90;;;;;;5036313;28;20517;-75
2021/10/15 01:34:53;;;;;;;75.38;29.05;;;7.80;99.90;;;;;;5035371;28;20052;-75
2021/10/15 01:37:21;;;;;;;78.97;27.95;;;7.70;99.90;;;;;;5035971;28;20045;-74
2021/10/15 01:39:48;;;;;;;69.20;26.33;;;7.70;99.90;;;;;;5036511;28;20345;-75
2021/10/15 01:45:00;;;;;;;72.95;28.05;;;7.70;99.90;;;;;;5036387;28;20086;-75
2021/10/15 01:47:27;;;;;;;64.47;25.25;;;7.70;99.90;;;;;;5035626;28;20876;-75
2021/10/15 01:49:54;;;;;;;69.38;26.65;;;7.60;99.90;;;;;;5036403;28;20452;-76
2021/10/15 01:52:23;;;;;;;73.80;26.85;;;7.60;99.90;;;;;;5035754;28;20292;-76
2021/10/15 01:54:50;;;;;;;66.80;25.05;;;7.60;99.90;;;;;;5036103;28;20456;-75
2021/10/15 01:57:17;;;;;;;68.38;26.08;;;7.60;99.90;;;;;;5034824;28;20059;-76
2021/10/15 01:59:44;;;;;;;56.10;25.30;;;7.60;99.90;;;;;;5036234;28;20429;-76
2021/10/15 02:02:11;;;;;;;61.75;25.17;;;7.60;99.90;;;;;;5035249;28;20074;-76
2021/10/15 02:04:38;;;;;;;53.70;23.98;;;7.80;99.90;;;;;;5035737;28;20064;-76
2021/10/15 02:07:05;;;;;;;61.75;23.80;;;7.80;99.90;;;;;;5035871;28;20747;-76
2021/10/15 02:09:33;;;;;;;69.40;26.40;;;7.80;99.90;;;;;;5035474;28;20118;-75
2021/10/15 02:12:02;;;;;;;61.85;24.73;;;7.80;99.90;;;;;;5035780;28;20045;-75
2021/10/15 02:14:30;;;;;;;55.92;24.60;;;7.70;99.90;;;;;;5035899;28;20056;-75
2021/10/15 02:16:57;;;;;;;60.65;24.13;;;7.70;99.90;;;;;;5034499;28;20041;-76
2021/10/15 02:19:24;;;;;;;54.92;23.77;;;7.60;99.90;;;;;;5035635;28;20041;-76
2021/10/15 02:21:51;;;;;;;49.83;23.55;;;7.60;99.90;;;;;;5035664;28;20114;-76
2021/10/15 02:24:19;;;;;;;65.68;25.73;;;7.70;99.90;;;;;;5035076;28;20051;-75
2021/10/15 02:26:47;;;;;;;70.30;26.50;;;7.60;99.90;;;;;;5034586;28;20464;-76
2021/10/15 02:29:14;;;;;;;59.90;24.58;;;7.50;99.90;;;;;;5035714;28;20049;-76
2021/10/15 02:31:41;;;;;;;59.22;24.10;;;7.40;99.90;;;;;;5034784;28;20501;-76
2021/10/15 02:34:08;;;;;;;70.00;26.33;;;7.30;99.90;;;;;;5035212;28;20414;-74
2021/10/15 02:36:35;;;;;;;59.67;23.85;;;7.30;99.90;;;;;;5032343;28;20110;-75
2021/10/15 02:39:02;;;;;;;64.32;24.92;;;7.30;99.90;;;;;;5035331;28;20049;-74
2021/10/15 02:41:29;;;;;;;60.30;24.85;;;7.30;99.90;;;;;;5035538;28;20045;-75
2021/10/15 02:43:58;;;;;;;59.20;24.25;;;7.30;99.90;;;;;;5035861;28;20072;-75
2021/10/15 02:46:25;;;;;;;60.00;24.38;;;7.30;99.90;;;;;;5033811;28;20276;-75
2021/10/15 02:48:52;;;;;;;52.00;23.42;;;7.30;99.90;;;;;;5034699;28;20110;-75
2021/10/15 02:51:19;;;;;;;56.38;24.02;;;7.40;99.90;;;;;;5034214;28;20067;-75
2021/10/15 02:53:46;;;;;;;56.33;25.08;;;7.40;99.90;;;;;;5034235;28;20049;-75
2021/10/15 02:56:13;;;;;;;59.10;24.35;;;7.30;99.90;;;;;;5035131;28;20049;-75
2021/10/15 02:58:40;;;;;;;64.40;25.60;;;7.30;99.90;;;;;;5037355;28;20866;-75
2021/10/15 03:01:09;;;;;;;55.28;23.85;;;7.20;99.90;;;;;;5039877;28;20075;-75
2021/10/15 03:03:39;;;;;;;65.35;24.58;;;7.20;99.90;;;;;;5038679;28;20056;-74
2021/10/15 03:06:06;;;;;;;56.38;22.73;;;7.10;99.90;;;;;;5038012;28;20045;-76
2021/10/15 03:08:33;;;;;;;58.17;24.35;;;7.10;99.90;;;;;;5038107;28;20199;-74
2021/10/15 03:11:00;;;;;;;62.22;24.88;;;6.90;99.90;;;;;;5038097;28;20075;-74
2021/10/15 03:13:27;;;;;;;77.18;27.58;;;6.90;99.90;;;;;;5038112;28;20049;-74
2021/10/15 03:15:54;;;;;;;55.45;22.52;;;6.80;99.90;;;;;;5038766;28;20052;-74
2021/10/15 03:18:23;;;;;;;64.20;24.52;;;6.70;99.90;;;;;;5038389;28;20096;-75
2021/10/15 03:20:50;;;;;;;80.50;26.80;;;6.60;99.90;;;;;;5037986;28;20055;-74
2021/10/15 03:23:17;;;;;;;63.85;25.55;;;6.60;99.90;;;;;;5039084;28;20049;-74
2021/10/15 03:25:44;;;;;;;65.85;25.35;;;6.60;99.90;;;;;;5039334;28;20444;-74
2021/10/15 03:28:11;;;;;;;58.05;23.92;;;6.70;99.90;;;;;;5039022;28;20053;-74
2021/10/15 03:30:38;;;;;;;59.90;23.63;;;6.80;99.90;;;;;;5039163;28;20112;-75
2021/10/15 03:33:05;;;;;;;54.15;22.85;;;6.80;99.90;;;;;;5038154;28;20051;-74
2021/10/15 03:35:34;;;;;;;62.25;22.67;;;6.80;99.90;;;;;;5039188;28;20648;-75
2021/10/15 03:38:01;;;;;;;57.65;23.10;;;6.80;99.90;;;;;;5039315;28;20076;-74
2021/10/15 03:40:28;;;;;;;59.60;21.92;;;6.80;99.90;;;;;;5038230;28;20037;-74
2021/10/15 03:42:55;;;;;;;55.65;22.92;;;6.70;99.90;;;;;;5038983;28;20079;-74
2021/10/15 03:45:22;;;;;;;59.40;22.23;;;6.70;99.90;;;;;;5038765;28;20071;-74
2021/10/15 03:47:49;;;;;;;66.43;23.88;;;6.60;99.90;;;;;;5039546;28;20072;-73
2021/10/15 03:50:16;;;;;;;52.55;21.85;;;6.50;99.90;;;;;;5037837;28;20501;-74
2021/10/15 03:52:45;;;;;;;60.75;23.38;;;6.50;99.90;;;;;;5038503;28;20119;-74
2021/10/15 03:55:13;;;;;;;57.47;23.52;;;6.40;99.90;;;;;;5038573;28;20044;-76
2021/10/15 03:57:41;;;;;;;55.30;23.17;;;6.30;99.90;;;;;;5038404;28;20049;-75
2021/10/15 04:00:10;;;;;;;61.40;24.42;;;6.30;99.90;;;;;;5038598;28;20041;-75
2021/10/15 04:02:39;;;;;;;56.13;22.05;;;6.40;99.90;;;;;;5038443;28;20106;-75
2021/10/15 04:05:07;;;;;;;68.72;24.50;;;6.30;99.90;;;;;;5038148;28;20056;-75
2021/10/15 04:07:34;;;;;;;54.50;21.90;;;6.20;99.90;;;;;;5037852;28;20053;-75
2021/10/15 04:10:04;;;;;;;65.07;25.95;;;6.20;99.90;;;;;;5037872;28;20048;-76
2021/10/15 04:12:32;;;;;;;59.75;23.08;;;6.20;99.90;;;;;;5037285;28;20794;-74
2021/10/15 04:14:59;;;;;;;54.50;22.33;;;6.30;99.90;;;;;;5038251;28;20492;-75
2021/10/15 04:17:26;;;;;;;51.25;23.05;;;6.40;99.90;;;;;;5038365;28;20056;-75
2021/10/15 04:19:53;;;;;;;57.17;21.83;;;6.40;99.90;;;;;;5038577;28;20107;-75
2021/10/15 04:22:21;;;;;;;53.45;22.15;;;6.40;99.90;;;;;;5038887;28;20053;-75
2021/10/15 04:24:48;;;;;;;50.40;21.13;;;6.40;99.90;;;;;;5038515;28;20057;-75
2021/10/15 04:27:16;;;;;;;56.72;22.83;;;6.50;99.90;;;;;;5038564;28;20048;-74
2021/10/15 04:29:43;;;;;;;51.50;21.60;;;6.50;99.90;;;;;;5039661;28;20102;-76
2021/10/15 04:32:10;;;;;;;49.42;21.65;;;6.60;99.90;;;;;;5039151;28;20052;-75
2021/10/15 04:34:37;;;;;;;45.75;21.08;;;6.60;99.90;;;;;;5035807;28;20056;-74
2021/10/15 04:37:04;;;;;;;50.40;22.15;;;6.60;99.90;;;;;;5034909;28;20059;-75
2021/10/15 04:39:31;;;;;;;47.45;21.42;;;6.60;99.90;;;;;;5035488;28;20048;-75
2021/10/15 04:41:58;;;;;;;48.45;21.48;;;6.60;99.90;;;;;;5036312;28;20052;-75
2021/10/15 04:44:27;;;;;;;52.97;22.02;;;6.70;99.90;;;;;;5035618;28;20507;-75
2021/10/15 04:46:54;;;;;;;44.67;20.85;;;6.60;99.90;;;;;;5033870;28;20049;-76
2021/10/15 04:49:21;;;;;;;42.80;20.20;;;6.60;99.90;;;;;;5037267;28;20130;-75
2021/10/15 04:51:48;;;;;;;50.75;21.13;;;6.60;99.90;;;;;;5037048;28;20056;-75
2021/10/15 04:54:15;;;;;;;43.38;19.40;;;6.60;99.90;;;;;;5037875;28;20453;-75
2021/10/15 04:56:42;;;;;;;43.90;19.42;;;6.50;99.90;;;;;;5039309;28;20099;-76
2021/10/15 04:59:09;;;;;;;40.08;19.70;;;6.50;99.90;;;;;;5038380;28;20110;-74
2021/10/15 05:01:37;;;;;;;49.53;20.08;;;6.50;99.90;;;;;;5038660;28;20057;-75
2021/10/15 05:04:05;;;;;;;45.45;20.38;;;6.50;99.90;;;;;;5039334;28;20103;-75
2021/10/15 05:06:32;;;;;;;45.90;19.02;;;6.50;99.90;;;;;;5038316;28;20053;-75
2021/10/15 05:09:14;;;;;;;39.13;17.92;;;6.40;99.90;;;;;;5038014;28;20130;-74
2021/10/15 05:11:45;;;;;;;36.17;17.50;;;6.40;99.90;;;;;;5037943;28;20053;-75
2021/10/15 05:14:13;;;;;;;39.30;18.13;;;6.40;99.90;;;;;;5039237;28;20045;-76
2021/10/15 05:16:41;;;;;;;41.63;18.98;;;6.30;99.90;;;;;;5037947;28;20049;-73
2021/10/15 05:19:08;;;;;;;39.08;18.55;;;6.30;99.90;;;;;;5038671;28;20481;-74
2021/10/15 05:21:35;;;;;;;41.10;18.55;;;6.30;99.90;;;;;;5037772;28;20138;-74
2021/10/15 05:24:02;;;;;;;43.40;19.07;;;6.30;99.90;;;;;;5038724;28;20048;-75
2021/10/15 05:26:29;;;;;;;42.27;20.20;;;6.30;99.90;;;;;;5038550;28;20049;-74
2021/10/15 05:28:56;;;;;;;45.40;20.60;;;6.30;99.90;;;;;;5039510;28;20069;-76
2021/10/15 05:31:23;;;;;;;43.07;19.53;;;6.30;99.90;;;;;;5037031;28;20130;-75
2021/10/15 05:33:52;;;;;;;42.87;19.47;;;6.20;99.90;;;;;;5037484;28;20069;-74
2021/10/15 05:36:19;;;;;;;47.47;21.03;;;6.20;99.90;;;;;;5037824;28;20052;-73
2021/10/15 05:38:46;;;;;;;41.67;18.37;;;6.20;99.90;;;;;;5037644;28;20041;-74
2021/10/15 05:41:13;;;;;;;42.60;19.10;;;6.20;99.90;;;;;;5037042;28;20052;-74
2021/10/15 05:43:40;;;;;;;39.87;17.57;;;6.20;99.90;;;;;;5038341;28;20139;-76
2021/10/15 05:46:07;;;;;;;44.20;19.67;;;6.20;99.90;;;;;;5037530;28;20570;-74
2021/10/15 05:48:34;;;;;;;42.13;19.20;;;6.20;99.90;;;;;;5037522;28;20052;-74
2021/10/15 05:51:03;;;;;;;39.87;19.57;;;6.20;99.90;;;;;;5036878;28;20711;-74
2021/10/15 05:53:32;;;;;;;43.00;19.23;;;6.20;99.90;;;;;;5037145;28;20053;-74
2021/10/15 05:56:17;;;;;;;45.38;19.73;;;6.20;99.90;;;;;;5037804;28;20041;-75
2021/10/15 05:58:49;;;;;;;46.72;20.23;;;6.20;99.90;;;;;;5039053;28;20150;-74
2021/10/15 06:01:16;;;;;;;41.67;18.80;;;6.20;99.90;;;;;;5039610;28;20044;-74
2021/10/15 06:03:46;;;;;;;43.00;18.55;;;6.30;99.90;;;;;;5039361;28;20080;-78
2021/10/15 06:14:33;;;;;;;47.42;20.65;;;6.40;99.90;;;;;;5036578;28;20043;-75
2021/10/15 06:17:06;;;;;;;43.08;20.02;;;6.50;99.90;;;;;;5037498;28;20404;-74
2021/10/15 06:19:42;;;;;;;39.70;19.55;;;6.50;99.90;;;;;;5036653;28;20074;-74
2021/10/15 06:22:11;;;;;;;42.40;20.17;;;6.50;99.90;;;;;;5037182;28;20084;-73
2021/10/15 06:24:38;;;;;;;44.05;20.55;;;6.60;99.90;;;;;;5036957;28;20547;-74
2021/10/15 06:27:05;;;;;;;51.88;21.13;;;6.70;99.90;;;;;;5035317;28;20037;-74
2021/10/15 06:29:32;;;;;;;47.80;20.23;;;6.80;99.90;;;;;;5035339;28;20041;-75
2021/10/15 06:31:59;;;;;;;44.78;19.80;;;6.90;99.90;;;;;;5036365;28;20855;-74
2021/10/15 06:34:26;;;;;;;45.30;20.88;;;6.90;99.90;;;;;;5036291;28;20087;-74
2021/10/15 06:36:53;;;;;;;44.88;20.88;;;7.00;99.90;;;;;;5036236;28;20414;-75
2021/10/15 06:39:22;;;;;;;41.83;19.73;;;7.10;99.90;;;;;;5035058;28;20049;-74
2021/10/15 06:41:49;;;;;;;47.45;21.17;;;7.10;99.90;;;;;;5035238;28;20505;-74
2021/10/15 06:44:16;;;;;;;43.53;21.05;;;7.20;99.90;;;;;;5036982;28;20045;-74
2021/10/15 06:46:43;;;;;;;41.95;20.77;;;7.20;99.90;;;;;;5034659;28;20041;-73
2021/10/15 06:49:10;;;;;;;46.80;21.67;;;7.30;99.90;;;;;;5035804;28;20410;-73
2021/10/15 06:51:37;;;;;;;42.83;19.73;;;7.40;99.90;;;;;;5035252;28;20429;-74
2021/10/15 06:54:04;;;;;;;38.97;18.70;;;7.50;99.90;;;;;;5035570;28;20041;-73
2021/10/15 06:56:33;;;;;;;35.50;17.48;;;7.70;99.90;;;;;;5035553;28;20049;-74
2021/10/15 06:59:00;;;;;;;37.53;17.50;;;7.80;99.90;;;;;;5036252;28;20041;-73
2021/10/15 07:01:27;;;;;;;33.72;16.13;;;7.90;99.90;;;;;;5035257;28;20394;-74
2021/10/15 07:03:55;;;;;;;32.38;16.63;;;8.00;99.90;;;;;;5035639;28;20120;-76
2021/10/15 07:06:22;;;;;;;29.80;15.38;;;8.10;99.90;;;;;;5040150;28;20051;-78
2021/10/15 07:08:49;;;;;;;27.02;14.20;;;8.00;99.90;;;;;;5036841;28;20056;-79
2021/10/15 07:11:16;;;;;;;28.02;13.52;;;8.20;99.90;;;;;;5037211;28;20106;-78
2021/10/15 07:13:44;;;;;;;28.30;14.10;;;8.10;99.90;;;;;;5038657;28;20519;-81
2021/10/15 07:16:11;;;;;;;30.10;13.68;;;8.00;99.90;;;;;;5040222;28;20048;-82
2021/10/15 07:18:39;;;;;;;29.30;14.05;;;7.90;99.90;;;;;;5041468;28;20123;-74
2021/10/15 07:21:06;;;;;;;24.98;13.27;;;7.90;99.90;;;;;;5040191;28;20450;-76
2021/10/15 07:23:33;;;;;;;23.55;13.25;;;7.90;99.90;;;;;;5038855;28;20493;-74
2021/10/15 07:26:01;;;;;;;25.52;13.82;;;8.00;99.90;;;;;;5037472;28;20053;-77
2021/10/15 07:28:28;;;;;;;25.77;14.15;;;8.10;99.90;;;;;;5036899;28;20232;-77
2021/10/15 07:30:57;;;;;;;29.17;13.80;;;8.20;99.90;;;;;;5037394;28;20114;-76
2021/10/15 07:33:25;;;;;;;29.00;13.13;;;8.40;99.90;;;;;;5037094;28;20136;-79
2021/10/15 07:35:52;;;;;;;23.33;12.25;;;8.40;99.90;;;;;;5038282;28;20140;-75
2021/10/15 07:38:19;;;;;;;25.48;13.13;;;8.40;99.90;;;;;;5036900;28;21139;-80
2021/10/15 07:40:46;;;;;;;22.73;12.32;;;8.70;99.90;;;;;;5036465;28;20057;-75
2021/10/15 07:43:13;;;;;;;20.15;11.27;;;8.80;99.90;;;;;;5036617;28;20218;-78
2021/10/15 07:45:40;;;;;;;21.02;11.48;;;8.90;99.90;;;;;;5039406;28;20106;-75
2021/10/15 07:48:09;;;;;;;21.85;11.07;;;9.10;99.90;;;;;;5040556;28;20049;-80
2021/10/15 07:50:36;;;;;;;20.65;11.93;;;9.20;99.90;;;;;;5040725;28;20071;-76
2021/10/15 07:53:03;;;;;;;18.67;9.80;;;9.40;99.90;;;;;;5039527;28;20045;-75
2021/10/15 07:55:31;;;;;;;18.52;10.20;;;10.00;99.90;;;;;;5040261;28;20095;-75
2021/10/15 07:57:58;;;;;;;18.13;10.25;;;9.60;99.90;;;;;;5040809;28;20049;-77
2021/10/15 08:00:25;;;;;;;17.02;10.05;;;9.50;99.90;;;;;;5039374;28;20136;-75
2021/10/15 08:02:53;;;;;;;17.45;10.40;;;9.70;99.90;;;;;;5038814;28;20094;-76
2021/10/15 08:05:21;;;;;;;18.15;10.15;;;9.70;99.90;;;;;;5039046;28;20091;-77
2021/10/15 08:07:48;;;;;;;15.65;9.60;;;9.70;99.90;;;;;;5038145;28;20085;-80
2021/10/15 08:10:16;;;;;;;17.77;9.13;;;9.80;99.90;;;;;;5038439;28;20053;-77
2021/10/15 08:12:43;;;;;;;16.50;9.85;;;9.90;99.90;;;;;;5038462;28;20053;-77
2021/10/15 08:15:13;;;;;;;15.63;8.70;;;10.10;99.90;;;;;;5038073;28;20102;-75
2021/10/15 08:17:41;;;;;;;16.70;9.23;;;10.30;99.90;;;;;;5038268;28;20052;-78
2021/10/15 08:20:09;;;;;;;14.40;9.27;;;10.60;99.90;;;;;;5038541;28;20094;-76
2021/10/15 08:22:38;;;;;;;15.88;7.93;;;10.90;99.90;;;;;;5037931;28;20057;-74
2021/10/15 08:25:06;;;;;;;15.48;7.90;;;11.90;99.90;;;;;;5038582;28;20092;-75
2021/10/15 08:27:33;;;;;;;12.23;7.85;;;13.50;99.90;;;;;;5036887;28;20057;-75
2021/10/15 08:30:01;;;;;;;13.50;8.40;;;13.70;99.90;;;;;;5036175;28;20502;-74
2021/10/15 08:32:28;;;;;;;11.70;7.65;;;13.00;99.90;;;;;;5036152;28;20077;-78
2021/10/15 08:34:55;;;;;;;16.60;8.00;;;11.70;99.90;;;;;;5035969;28;20464;-75
2021/10/15 08:37:22;;;;;;;13.60;7.80;;;11.90;99.90;;;;;;5035310;28;20056;-78
2021/10/15 08:39:51;;;;;;;12.52;7.18;;;12.50;99.90;;;;;;5035093;28;20084;-75
2021/10/15 08:42:18;;;;;;;11.82;7.38;;;12.10;99.90;;;;;;5036181;28;20127;-75
2021/10/15 08:44:47;;;;;;;12.93;7.22;;;11.60;99.90;;;;;;5036210;28;20563;-78
2021/10/15 08:47:15;;;;;;;15.07;8.23;;;11.50;99.90;;;;;;5036924;28;20466;-75
2021/10/15 08:49:44;;;;;;;12.05;8.18;;;11.00;99.90;;;;;;5036753;28;20045;-77
2021/10/15 08:52:11;;;;;;;14.80;8.50;;;11.00;99.90;;;;;;5036501;28;20041;-76
2021/10/15 08:54:43;;;;;;;15.68;8.35;;;11.40;99.90;;;;;;5038089;28;20053;-75
2021/10/15 08:57:11;;;;;;;13.38;8.35;;;11.50;99.90;;;;;;5036753;28;20054;-77
2021/10/15 08:59:40;;;;;;;16.05;8.80;;;11.30;99.90;;;;;;5037632;28;20041;-76
2021/10/15 09:02:11;;;;;;;16.00;7.85;;;11.60;99.90;;;;;;5036857;28;20049;-78
2021/10/15 09:04:47;;;;;;;14.80;8.48;;;11.00;99.90;;;;;;5036359;28;20056;-77
2021/10/15 09:07:16;;;;;;;12.32;8.43;;;11.20;99.90;;;;;;5034554;28;20509;-78
2021/10/15 09:09:44;;;;;;;13.68;7.88;;;11.60;99.90;;;;;;5036117;28;20493;-78
2021/10/15 09:12:14;;;;;;;15.40;8.65;;;11.40;99.90;;;;;;5037255;28;20107;-78
2021/10/15 09:14:42;;;;;;;12.98;8.43;;;11.60;99.90;;;;;;5035736;28;20041;-77
2021/10/15 09:17:11;;;;;;;13.68;8.43;;;11.90;99.90;;;;;;5034965;28;20096;-75
2021/10/15 09:19:40;;;;;;;12.93;8.30;;;11.90;99.90;;;;;;5034927;28;20064;-76
2021/10/15 09:22:16;;;;;;;13.80;7.78;;;11.80;99.90;;;;;;5036031;28;20052;-78
2021/10/15 09:24:45;;;;;;;12.93;7.35;;;12.20;99.90;;;;;;5036199;28;20041;-77
2021/10/15 09:27:24;;;;;;;13.50;7.53;;;12.40;99.90;;;;;;5034857;28;20048;-76
2021/10/15 09:29:54;;;;;;;11.30;6.88;;;12.20;99.90;;;;;;5035793;28;20045;-75
2021/10/15 09:32:24;;;;;;;11.73;7.95;;;12.10;99.90;;;;;;5035448;28;20057;-74
2021/10/15 09:34:51;;;;;;;12.57;7.57;;;12.40;99.90;;;;;;5034963;28;20099;-75
2021/10/15 09:37:21;;;;;;;13.85;8.40;;;12.30;99.90;;;;;;5034324;28;20579;-75
2021/10/15 09:39:48;;;;;;;16.00;8.43;;;12.20;99.90;;;;;;5034956;28;20382;-75
2021/10/15 09:42:35;;;;;;;13.95;8.15;;;12.60;99.90;;;;;;5034555;28;20464;-75
2021/10/15 09:45:12;;;;;;;12.50;8.23;;;12.20;99.90;;;;;;5034957;28;20045;-75
2021/10/15 09:47:39;;;;;;;14.80;8.15;;;12.20;99.90;;;;;;5034713;28;20049;-76
2021/10/15 09:50:08;;;;;;;15.23;8.38;;;12.10;99.90;;;;;;5034392;28;20647;-75
2021/10/15 09:52:38;;;;;;;13.35;7.88;;;12.20;99.90;;;;;;5036179;28;20064;-75
2021/10/15 09:55:13;;;;;;;14.57;8.55;;;12.40;99.90;;;;;;5034670;28;20598;-75
2021/10/15 09:57:44;;;;;;;13.32;7.53;;;12.30;99.90;;;;;;5035201;28;20475;-76
2021/10/15 10:00:13;;;;;;;13.98;7.72;;;12.20;99.90;;;;;;5035634;28;20118;-75
2021/10/15 10:02:40;;;;;;;14.85;8.57;;;12.30;99.90;;;;;;5035109;28;20075;-75
2021/10/15 10:05:12;;;;;;;12.93;7.85;;;12.40;99.90;;;;;;5034569;28;20091;-75
2021/10/15 10:07:40;;;;;;;13.40;7.75;;;12.60;99.90;;;;;;5034130;28;20136;-75
2021/10/15 10:10:09;;;;;;;13.63;8.02;;;12.60;99.90;;;;;;5034963;28;21118;-75
2021/10/15 10:12:38;;;;;;;13.70;6.85;;;12.60;99.90;;;;;;5034039;28;20041;-75
2021/10/15 10:15:09;;;;;;;11.93;7.10;;;14.90;99.90;;;;;;5033450;28;20041;-75
2021/10/15 10:17:42;;;;;;;13.63;7.20;;;14.40;99.90;;;;;;5033730;28;20057;-75
2021/10/15 10:20:15;;;;;;;10.95;6.28;;;14.10;99.90;;;;;;5033530;28;20395;-75
2021/10/15 10:22:49;;;;;;;9.95;6.63;;;15.40;99.90;;;;;;5033696;28;20056;-75
2021/10/15 10:25:24;;;;;;;9.88;6.43;;;15.40;99.90;;;;;;5032881;28;20452;-75
2021/10/15 10:27:53;;;;;;;15.13;7.25;;;15.80;99.90;;;;;;5035203;28;20456;-75
2021/10/15 10:30:36;;;;;;;10.57;6.43;;;17.70;99.90;;;;;;5034639;28;20514;-74
2021/10/15 10:33:04;;;;;;;10.10;5.95;;;18.80;99.90;;;;;;5034741;28;20053;-74
2021/10/15 10:35:32;;;;;;;10.57;6.13;;;19.20;99.90;;;;;;5033998;28;20048;-74
2021/10/15 10:38:30;;;;;;;11.40;6.40;;;19.10;99.90;;;;;;5034986;28;20053;-74
2021/10/15 10:41:13;;;;;;;12.10;6.32;;;20.50;99.90;;;;;;5034786;28;20048;-73
2021/10/15 10:44:11;;;;;;;9.60;5.78;;;20.50;99.90;;;;;;5033827;28;20094;-73
2021/10/15 10:46:40;;;;;;;10.30;5.70;;;21.20;99.90;;;;;;5032498;28;20053;-73
2021/10/15 10:49:23;;;;;;;8.43;5.40;;;20.40;99.90;;;;;;5033201;28;20072;-73
2021/10/15 10:52:14;;;;;;;9.10;5.32;;;21.00;99.90;;;;;;5033016;28;20421;-72
2021/10/15 10:54:43;;;;;;;9.07;5.65;;;21.20;99.90;;;;;;5034665;28;20452;-73
2021/10/15 10:57:40;;;;;;;10.77;6.00;;;22.10;99.90;;;;;;5034616;28;20091;-72
2021/10/15 11:00:22;;;;;;;8.90;5.77;;;21.40;99.90;;;;;;5034811;28;20131;-73
2021/10/15 11:02:53;;;;;;;10.80;5.53;;;23.30;99.90;;;;;;5034354;28;20049;-73
2021/10/15 11:05:37;;;;;;;8.10;4.90;;;23.10;99.90;;;;;;5033603;28;20084;-73
2021/10/15 11:08:30;;;;;;;7.75;4.70;;;21.60;99.90;;;;;;5033496;28;20073;-73
2021/10/15 11:11:42;;;;;;;8.80;4.72;;;22.90;99.90;;;;;;5033754;28;20049;-73
2021/10/15 11:14:25;;;;;;;11.35;5.00;;;25.10;99.90;;;;;;5035385;28;20057;-73
2021/10/15 11:16:52;;;;;;;7.45;4.07;;;25.10;99.90;;;;;;5034773;28;20041;-73
2021/10/15 11:19:21;;;;;;;8.35;3.92;;;23.20;99.90;;;;;;5035959;28;20588;-73
2021/10/15 11:22:02;;;;;;;9.02;4.28;;;24.60;99.90;;;;;;5037770;28;20666;-73
2021/10/15 11:24:28;;;;;;;9.40;4.40;;;23.80;99.90;;;;;;5038018;28;20160;-74
2021/10/15 11:26:56;;;;;;;8.13;3.75;;;23.60;99.90;;;;;;5037137;28;20560;-73
2021/10/15 11:29:23;;;;;;;7.70;3.83;;;21.10;99.90;;;;;;5038333;28;20053;-73
2021/10/15 11:31:54;;;;;;;10.15;3.70;;;20.10;99.90;;;;;;5037564;28;20501;-72
2021/10/15 11:34:23;;;;;;;9.50;4.20;;;21.30;99.90;;;;;;5037272;28;20106;-72
2021/10/15 11:37:02;;;;;;;9.13;3.95;;;19.00;99.90;;;;;;5037017;28;20580;-73
2021/10/15 11:39:29;;;;;;;7.72;3.35;;;18.90;99.90;;;;;;5036337;28;20049;-73
2021/10/15 11:41:57;;;;;;;11.85;3.55;;;18.20;99.90;;;;;;5036558;28;20107;-73
2021/10/15 11:44:34;;;;;;;7.65;3.78;;;16.70;99.90;;;;;;5037027;28;20049;-74
2021/10/15 11:47:01;;;;;;;6.93;3.08;;;16.90;99.90;;;;;;5035968;28;20111;-73
2021/10/15 11:49:38;;;;;;;7.60;2.75;;;18.60;99.90;;;;;;5036815;28;20081;-74
2021/10/15 11:52:05;;;;;;;7.07;3.17;;;17.90;99.90;;;;;;5037059;28;20564;-74
2021/10/15 11:54:32;;;;;;;15.65;3.90;;;17.70;99.90;;;;;;5037114;28;20441;-74
2021/10/15 11:57:00;;;;;;;8.43;2.65;;;19.40;99.90;;;;;;5035798;28;20076;-74
2021/10/15 11:59:27;;;;;;;8.32;3.70;;;19.00;99.90;;;;;;5036811;28;20075;-73
2021/10/15 12:01:54;;;;;;;6.65;3.42;;;16.50;99.90;;;;;;5036302;28;20087;-73
2021/10/15 12:04:21;;;;;;;9.90;3.40;;;16.80;99.90;;;;;;5036993;28;20053;-73
2021/10/15 12:06:51;;;;;;;8.10;3.10;;;18.00;99.90;;;;;;5037188;28;20116;-74
2021/10/15 12:09:20;;;;;;;10.40;3.85;;;17.70;99.90;;;;;;5036596;28;20049;-74
2021/10/15 12:11:51;;;;;;;7.03;3.20;;;17.00;99.90;;;;;;5036294;28;20115;-74
2021/10/15 12:14:22;;;;;;;9.38;3.00;;;15.00;99.90;;;;;;5036529;28;20107;-74
2021/10/15 12:16:52;;;;;;;6.57;3.33;;;14.80;99.90;;;;;;5036209;28;20509;-73
2021/10/15 12:19:28;;;;;;;6.97;2.80;;;15.00;99.90;;;;;;5035524;28;20049;-73
2021/10/15 12:22:09;;;;;;;6.45;3.10;;;15.60;99.90;;;;;;5036584;28;20076;-74
2021/10/15 12:24:38;;;;;;;6.60;3.33;;;14.90;99.90;;;;;;5037329;28;20146;-73
2021/10/15 12:27:14;;;;;;;7.05;3.20;;;15.10;99.90;;;;;;5035854;28;20570;-73
2021/10/15 12:29:44;;;;;;;7.63;3.20;;;15.30;99.90;;;;;;5035505;28;20053;-73
2021/10/15 12:32:17;;;;;;;7.13;3.50;;;14.40;99.90;;;;;;5035264;28;20049;-72
2021/10/15 12:35:07;;;;;;;8.02;3.20;;;14.40;99.90;;;;;;5034656;28;20068;-73
2021/10/15 12:37:47;;;;;;;8.05;4.28;;;14.70;99.90;;;;;;5034340;28;20139;-75
2021/10/15 12:40:18;;;;;;;6.53;3.05;;;14.40;99.90;;;;;;5035876;28;20053;-72
2021/10/15 12:42:48;;;;;;;5.85;2.80;;;13.70;99.90;;;;;;5035970;28;20052;-73
2021/10/15 12:45:17;;;;;;;6.60;3.63;;;13.40;99.90;;;;;;5034403;28;20106;-73
2021/10/15 12:47:55;;;;;;;9.85;3.83;;;14.00;99.90;;;;;;5035986;28;20081;-73
2021/10/15 12:50:23;;;;;;;5.72;3.20;;;14.10;99.90;;;;;;5034910;28;20099;-72
2021/10/15 12:52:51;;;;;;;9.55;3.83;;;14.10;99.90;;;;;;5035494;28;20108;-72
2021/10/15 12:55:20;;;;;;;8.38;3.95;;;13.40;99.90;;;;;;5033762;28;20567;-74
2021/10/15 12:57:49;;;;;;;12.63;3.97;;;13.50;99.90;;;;;;5034096;28;20095;-73
2021/10/15 13:00:19;;;;;;;10.77;3.85;;;13.30;99.90;;;;;;5034628;28;20099;-73